createdAt,value
2023-03-19T09:03:46.060Z,47.89
2023-03-19T09:06:03.334Z,47.26
2023-03-19T09:08:16.288Z,46.97
2023-03-19T09:10:29.026Z,46.39
2023-03-19T09:12:42.635Z,46.11
2023-03-19T09:14:55.520Z,45.46
2023-03-19T09:17:09.298Z,45.22
2023-03-19T09:19:23.739Z,44.87
2023-03-19T09:21:37.167Z,44.41
2023-03-19T09:23:49.977Z,44.19
2023-03-19T09:26:02.656Z,43.64
2023-03-19T09:28:15.388Z,43.47
2023-03-19T09:30:27.896Z,42.84
2023-03-19T09:32:40.693Z,42.01
2023-03-19T09:34:53.516Z,41.89
2023-03-19T09:37:06.142Z,41.56
2023-03-19T09:39:19.358Z,41.25
2023-03-19T09:41:37.790Z,40.82
2023-03-19T09:44:00.090Z,41.10
2023-03-19T09:46:22.062Z,40.92
2023-03-19T09:48:49.082Z,40.91
2023-03-19T09:51:05.775Z,40.39
2023-03-19T09:53:29.445Z,40.69
2023-03-19T09:55:51.499Z,40.45
2023-03-19T09:58:13.608Z,39.86
2023-03-19T10:00:32.282Z,39.55
2023-03-19T10:02:44.871Z,39.66
2023-03-19T10:05:31.448Z,39.22
2023-03-19T10:08:11.383Z,38.75
2023-03-19T10:10:42.485Z,38.54
2023-03-19T10:13:10.389Z,38.49
2023-03-19T10:15:31.132Z,38.08
2023-03-19T10:18:05.278Z,37.69
2023-03-19T10:20:29.681Z,37.17
2023-03-19T10:22:50.088Z,37.07
2023-03-19T10:25:03.749Z,37.23
2023-03-19T10:27:22.838Z,36.80
2023-03-19T10:29:35.690Z,36.68
2023-03-19T10:31:53.465Z,36.24
2023-03-19T10:34:14.143Z,35.85
2023-03-19T10:36:30.936Z,36.31
2023-03-19T10:38:44.237Z,36.32
2023-03-19T10:41:16.662Z,35.83
2023-03-19T10:43:30.387Z,35.89
2023-03-19T10:45:43.541Z,36.10
2023-03-19T10:47:58.180Z,35.97
2023-03-19T10:50:36.143Z,34.99
2023-03-19T10:53:00.579Z,35.04
2023-03-19T10:55:16.391Z,34.59
2023-03-19T10:57:31.847Z,34.28
2023-03-19T10:59:47.167Z,33.33
2023-03-19T11:02:03.752Z,32.98
2023-03-19T11:04:20.916Z,33.01
2023-03-19T11:06:38.136Z,31.81
2023-03-19T11:08:56.477Z,31.82
2023-03-19T11:11:24.791Z,31.96
2023-03-19T11:13:38.348Z,31.78
2023-03-19T11:15:53.822Z,31.03
2023-03-19T11:18:08.117Z,30.84
2023-03-19T11:20:33.562Z,30.61
2023-03-19T11:22:46.871Z,30.58
2023-03-19T11:25:27.998Z,30.20
2023-03-19T11:27:41.389Z,30.52
2023-03-19T11:29:54.646Z,30.29
2023-03-19T11:32:31.862Z,29.80
2023-03-19T11:35:11.132Z,30.02
2023-03-19T11:37:46.848Z,30.01
2023-03-19T11:40:20.469Z,29.83
2023-03-19T11:42:52.811Z,30.16
2023-03-19T11:45:05.449Z,30.04
2023-03-19T11:47:28.179Z,30.07
2023-03-19T11:49:59.937Z,30.37
2023-03-19T11:52:15.711Z,30.16
2023-03-19T11:54:40.328Z,29.86
2023-03-19T11:57:00.953Z,29.66
2023-03-19T11:59:19.954Z,29.37
2023-03-19T12:01:59.215Z,29.10
2023-03-19T12:04:30.876Z,28.73
2023-03-19T12:07:04.135Z,28.92
2023-03-19T12:09:29.801Z,28.66
2023-03-19T12:12:00.302Z,28.25
2023-03-19T12:14:27.528Z,28.16
2023-03-19T12:16:55.921Z,28.39
2023-03-19T12:19:43.014Z,27.91
2023-03-19T12:22:09.172Z,27.87
2023-03-19T12:24:45.417Z,27.95
2023-03-19T12:27:09.920Z,28.26
2023-03-19T12:29:46.653Z,28.15
2023-03-19T12:32:13.680Z,28.20
2023-03-19T12:34:34.127Z,28.01
2023-03-19T12:36:55.364Z,27.83
2023-03-19T12:39:13.889Z,27.53
2023-03-19T12:41:31.413Z,27.44
2023-03-19T12:43:57.271Z,27.53
2023-03-19T12:46:26.298Z,27.41
2023-03-19T12:48:51.686Z,27.67
2023-03-19T12:51:09.559Z,27.60
2023-03-19T12:53:34.098Z,27.47
2023-03-19T12:55:56.742Z,27.41
2023-03-19T12:58:34.238Z,27.40
2023-03-19T13:01:02.602Z,27.20
2023-03-19T13:03:23.107Z,27.47
2023-03-19T13:06:03.163Z,27.34
2023-03-19T13:08:42.386Z,27.25
2023-03-19T13:10:56.202Z,27.60
2023-03-19T13:13:28.362Z,27.40
2023-03-19T13:15:47.026Z,27.74
2023-03-19T13:18:20.977Z,27.70
2023-03-19T13:21:11.690Z,27.83
2023-03-19T13:23:29.839Z,27.95
2023-03-19T13:25:48.168Z,27.55
2023-03-19T13:28:01.066Z,27.45
2023-03-19T13:30:14.145Z,27.21
2023-03-19T13:32:40.498Z,27.03
2023-03-19T13:35:13.990Z,26.95
2023-03-19T13:37:27.267Z,26.93
2023-03-19T13:39:42.111Z,27.39
2023-03-19T13:42:08.909Z,27.47
2023-03-19T13:44:21.538Z,27.92
2023-03-19T13:46:39.878Z,28.51
2023-03-19T13:48:53.615Z,28.32
2023-03-19T13:51:27.903Z,28.37
2023-03-19T13:53:52.152Z,28.40
2023-03-19T13:56:22.454Z,28.48
2023-03-19T13:58:53.046Z,28.27
2023-03-19T14:01:09.260Z,28.46
2023-03-19T14:03:26.908Z,28.59
2023-03-19T14:05:41.592Z,28.74
2023-03-19T14:07:55.832Z,29.07
2023-03-19T14:10:17.407Z,29.71
2023-03-19T14:12:33.243Z,29.66
2023-03-19T14:14:50.400Z,29.82
2023-03-19T14:17:04.157Z,29.74
2023-03-19T14:19:19.870Z,29.92
2023-03-19T14:21:46.460Z,30.11
2023-03-19T14:27:18.079Z,30.40
2023-03-19T14:29:34.932Z,30.17
2023-03-19T14:31:51.305Z,30.05
2023-03-19T14:34:42.550Z,30.09
2023-03-19T14:37:16.998Z,30.37
2023-03-19T14:39:32.764Z,30.23
2023-03-19T14:41:48.617Z,30.15
2023-03-19T14:44:09.090Z,30.10
2023-03-19T14:46:44.913Z,30.21
2023-03-19T14:49:38.817Z,30.24
2023-03-19T14:52:03.486Z,30.39
2023-03-19T14:54:47.159Z,30.58
2023-03-19T14:57:06.608Z,30.53
2023-03-19T14:59:19.212Z,30.60
2023-03-19T15:01:34.287Z,30.46
2023-03-19T15:03:56.757Z,30.43
2023-03-19T15:06:13.472Z,30.52
2023-03-19T15:08:26.784Z,30.69
2023-03-19T15:11:08.505Z,30.51
2023-03-19T15:13:40.037Z,30.54
2023-03-19T15:16:14.670Z,30.58
2023-03-19T15:18:27.621Z,30.63
2023-03-19T15:20:45.491Z,30.45
2023-03-19T15:23:01.616Z,30.55
2023-03-19T15:25:15.226Z,31.12
2023-03-19T15:27:27.788Z,31.25
2023-03-19T15:29:40.367Z,31.49
2023-03-19T15:32:04.519Z,31.30
2023-03-19T15:34:23.661Z,32.13
2023-03-19T15:36:36.807Z,32.36
2023-03-19T15:39:02.070Z,32.90
2023-03-19T15:41:14.902Z,32.94
2023-03-19T15:43:27.783Z,33.19
2023-03-19T15:45:45.671Z,33.34
2023-03-19T15:48:05.789Z,33.51
2023-03-19T15:50:22.650Z,33.85
2023-03-19T15:52:38.841Z,33.99
2023-03-19T15:54:54.307Z,34.38
2023-03-19T15:57:08.857Z,34.57
2023-03-19T15:59:25.895Z,34.73
2023-03-19T16:01:38.752Z,34.93
2023-03-19T16:04:05.784Z,35.30
2023-03-19T16:06:27.266Z,35.16
2023-03-19T16:08:53.176Z,35.44
2023-03-19T16:11:14.299Z,35.60
2023-03-19T16:13:39.201Z,35.66
2023-03-19T16:16:05.966Z,35.73
2023-03-19T16:18:21.470Z,35.88
2023-03-19T16:20:42.990Z,36.05
2023-03-19T16:22:58.710Z,36.52
2023-03-19T16:25:19.141Z,36.47
2023-03-19T16:27:38.989Z,36.87
2023-03-19T16:29:59.793Z,37.41
2023-03-19T16:32:22.860Z,37.44
2023-03-19T16:34:49.242Z,37.72
2023-03-19T16:37:03.234Z,38.13
2023-03-19T16:39:35.000Z,37.98
2023-03-19T16:42:14.217Z,37.66
2023-03-19T16:44:31.305Z,38.06
2023-03-19T16:46:44.934Z,39.26
2023-03-19T16:48:57.541Z,39.55
2023-03-19T16:51:18.182Z,40.39
2023-03-19T16:53:32.025Z,40.48
2023-03-19T16:55:44.586Z,40.59
2023-03-19T16:58:00.631Z,40.38
2023-03-19T17:00:14.427Z,40.53
2023-03-19T17:02:28.520Z,40.90
2023-03-19T17:04:41.881Z,41.21
2023-03-19T17:06:54.493Z,41.75
2023-03-19T17:09:07.051Z,42.02
2023-03-19T17:11:34.543Z,43.10
2023-03-19T17:13:47.130Z,43.01
2023-03-19T17:16:03.501Z,43.07
2023-03-19T17:18:21.061Z,43.16
2023-03-19T17:20:38.162Z,43.66
2023-03-19T17:22:50.840Z,43.85
2023-03-19T17:25:06.100Z,44.54
2023-03-19T17:27:18.742Z,45.11
2023-03-19T17:29:31.665Z,45.47
2023-03-19T17:31:44.192Z,45.48
2023-03-19T17:34:11.711Z,45.27
2023-03-19T17:36:24.312Z,44.95
2023-03-19T17:38:36.923Z,45.02
2023-03-19T17:40:49.428Z,44.88
2023-03-19T17:43:01.957Z,44.99
2023-03-19T17:45:16.882Z,45.51
2023-03-19T17:47:29.386Z,46.03
2023-03-19T17:49:43.152Z,46.33
2023-03-19T17:51:56.798Z,46.95
2023-03-19T17:54:12.232Z,47.57
2023-03-19T17:56:26.023Z,47.56
2023-03-19T17:58:38.529Z,48.25
2023-03-19T18:00:52.007Z,48.59
2023-03-19T18:03:04.522Z,49.13
2023-03-19T18:05:20.163Z,49.37
2023-03-19T18:07:32.760Z,49.63
2023-03-19T18:09:45.826Z,49.83
2023-03-19T18:11:58.389Z,50.10
2023-03-19T18:14:10.910Z,50.95
2023-03-19T18:16:25.838Z,51.08
2023-03-19T18:18:38.336Z,51.44
2023-03-19T18:20:51.001Z,51.63
2023-03-19T18:23:05.309Z,51.98
2023-03-19T18:25:24.048Z,52.12
2023-03-19T18:27:36.974Z,52.42
2023-03-19T18:29:49.933Z,52.64
2023-03-19T18:32:07.548Z,53.20
2023-03-19T18:34:20.179Z,53.36
2023-03-19T18:36:33.739Z,53.85
2023-03-19T18:38:46.479Z,53.95
2023-03-19T18:40:59.030Z,54.14
2023-03-19T18:43:13.500Z,54.37
2023-03-19T18:45:30.511Z,54.72
2023-03-19T18:47:44.700Z,55.17
2023-03-19T18:49:57.795Z,55.51
2023-03-19T18:52:13.994Z,55.82
2023-03-19T18:54:26.563Z,56.19
2023-03-19T18:56:39.258Z,56.49
2023-03-19T18:58:52.541Z,56.48
2023-03-19T19:01:05.401Z,56.39
2023-03-19T19:03:20.391Z,56.36
2023-03-19T19:05:33.341Z,56.34
2023-03-19T19:07:46.144Z,56.35
2023-03-19T19:09:58.705Z,56.83
2023-03-19T19:12:14.797Z,57.08
2023-03-19T19:14:27.868Z,57.37
2023-03-19T19:16:40.776Z,57.56
2023-03-19T19:18:53.809Z,57.93
2023-03-19T19:21:06.357Z,58.33
2023-03-19T19:23:21.157Z,58.77
2023-03-19T19:25:33.968Z,58.69
2023-03-19T19:27:48.983Z,58.81
2023-03-19T19:30:02.191Z,58.79
2023-03-19T19:32:25.030Z,58.81
2023-03-19T19:34:37.582Z,58.90
2023-03-19T19:36:51.118Z,58.91
2023-03-19T19:39:04.038Z,59.43
2023-03-19T19:41:19.781Z,59.63
2023-03-19T19:43:32.678Z,59.85
2023-03-19T19:45:47.567Z,60.27
2023-03-19T19:48:00.504Z,60.66
2023-03-19T19:50:17.732Z,60.92
2023-03-19T19:52:31.848Z,61.21
2023-03-19T19:54:45.587Z,61.38
2023-03-19T19:56:58.192Z,61.61
2023-03-19T19:59:14.247Z,61.66
2023-03-19T20:01:27.518Z,61.85
2023-03-19T20:03:40.133Z,62.29
2023-03-19T20:05:53.873Z,62.67
2023-03-19T20:08:06.521Z,62.75
2023-03-19T20:10:20.624Z,63.50
2023-03-19T20:12:33.349Z,63.30
2023-03-19T20:14:46.186Z,63.56
2023-03-19T20:16:59.179Z,63.58
2023-03-19T20:19:18.819Z,63.66
2023-03-19T20:21:32.037Z,63.90
2023-03-19T20:23:45.279Z,64.13
2023-03-19T20:25:58.264Z,64.26
2023-03-19T20:28:20.919Z,64.31
2023-03-19T20:30:37.138Z,64.73
2023-03-19T20:32:51.284Z,64.68
2023-03-19T20:35:14.074Z,65.00
2023-03-19T20:37:27.233Z,65.37
2023-03-19T20:39:39.730Z,65.65
2023-03-19T20:41:52.419Z,65.86
2023-03-19T20:44:06.138Z,65.82
2023-03-19T20:46:20.880Z,66.08
2023-03-19T20:48:34.359Z,66.27
2023-03-19T20:50:47.771Z,66.70
2023-03-19T20:53:03.826Z,66.85
2023-03-19T20:55:20.567Z,66.99
2023-03-19T20:57:33.669Z,66.90
2023-03-19T20:59:47.463Z,67.28
2023-03-19T21:02:00.151Z,67.29
2023-03-19T21:04:18.714Z,67.63
2023-03-19T21:06:39.582Z,67.51
2023-03-19T21:09:03.174Z,67.65
2023-03-19T21:11:18.849Z,67.95
2023-03-19T21:13:32.049Z,68.06
2023-03-19T21:15:46.430Z,68.14
2023-03-19T21:17:59.227Z,68.48
2023-03-19T21:20:21.080Z,68.45
2023-03-19T21:22:34.831Z,68.67
2023-03-19T21:24:48.885Z,69.14
2023-03-19T21:27:03.946Z,69.33
2023-03-19T21:29:28.588Z,69.49
2023-03-19T21:31:42.658Z,69.40
2023-03-19T21:33:57.933Z,69.77
2023-03-19T21:36:11.666Z,70.02
2023-03-19T21:38:24.878Z,70.10
2023-03-19T21:40:38.010Z,70.12
2023-03-19T21:42:54.920Z,70.49
2023-03-19T21:45:17.478Z,70.66
2023-03-19T21:47:30.186Z,70.78
2023-03-19T21:49:42.905Z,70.98
2023-03-19T21:51:57.086Z,71.04
2023-03-19T21:54:09.958Z,71.07
2023-03-19T21:56:25.530Z,71.27
2023-03-19T21:58:38.661Z,71.53
2023-03-19T22:00:51.448Z,71.80
2023-03-19T22:03:04.057Z,72.24
2023-03-19T22:05:30.787Z,72.13
2023-03-19T22:07:43.341Z,72.15
2023-03-19T22:09:55.931Z,72.29
2023-03-19T22:12:24.388Z,72.49
2023-03-19T22:14:36.985Z,72.33
2023-03-19T22:16:53.457Z,72.44
2023-03-19T22:19:06.236Z,72.40
2023-03-19T22:21:21.857Z,72.59
2023-03-19T22:23:34.377Z,72.63
2023-03-19T22:25:49.629Z,72.53
2023-03-19T22:28:14.042Z,72.67
2023-03-19T22:30:37.865Z,72.72
2023-03-19T22:32:51.836Z,72.80
2023-03-19T22:35:05.014Z,72.95
2023-03-19T22:37:26.562Z,73.05
2023-03-19T22:39:39.122Z,73.03
2023-03-19T22:41:51.879Z,73.45
2023-03-19T22:44:08.815Z,73.57
2023-03-19T22:46:22.093Z,73.89
2023-03-19T22:48:35.669Z,74.31
2023-03-19T22:50:48.321Z,74.26
2023-03-19T22:53:01.054Z,74.64
2023-03-19T22:55:13.647Z,74.60
2023-03-19T22:57:26.268Z,74.58
2023-03-19T22:59:38.885Z,74.35
2023-03-19T23:01:51.509Z,74.39
2023-03-19T23:04:17.116Z,74.45
2023-03-19T23:06:31.081Z,74.45
2023-03-19T23:08:44.162Z,74.48
2023-03-19T23:10:56.907Z,74.60
2023-03-19T23:13:11.127Z,74.65
2023-03-19T23:15:26.731Z,74.82
2023-03-19T23:17:41.009Z,74.73
2023-03-19T23:19:53.478Z,75.19
2023-03-19T23:22:13.536Z,75.29
2023-03-19T23:24:26.606Z,75.55
2023-03-19T23:26:44.478Z,75.69
2023-03-19T23:29:03.466Z,75.83
2023-03-19T23:31:16.174Z,76.04
2023-03-19T23:33:29.943Z,76.16
2023-03-19T23:35:43.711Z,76.31
2023-03-19T23:37:57.260Z,76.59
2023-03-19T23:40:10.504Z,76.81
2023-03-19T23:42:31.497Z,76.84
2023-03-19T23:44:44.176Z,76.74
2023-03-19T23:47:01.081Z,76.92
2023-03-19T23:49:15.866Z,77.02
2023-03-19T23:51:28.443Z,77.27
2023-03-19T23:53:42.103Z,77.44
2023-03-19T23:55:59.403Z,77.38
2023-03-19T23:58:11.966Z,77.44
